Time;durP1;ratioP1;P1;durP2;ratioP2;P2;SDS_P1;SDS_P2;PMS_P1;PMS_P2;Temp;Humidity;BMP_temperature;BMP_pressure;BME280_temperature;BME280_humidity;BME280_pressure;Samples;Min_cycle;Max_cycle;Signal;HPM_P1;HPM_P2
2023/09/25 00:00:31;;;;;;;18.73;7.30;;;21.40;99.90;;;21.79;68.70;95016.09;5022288;28;20521;-58
2023/09/25 00:02:59;;;;;;;13.10;7.10;;;21.40;99.90;;;21.73;68.70;95024.97;5022277;28;20460;-58
2023/09/25 00:05:27;;;;;;;16.60;5.70;;;21.30;99.90;;;21.66;68.82;95029.50;5023399;28;20539;-58
2023/09/25 00:07:54;;;;;;;14.10;6.60;;;21.20;99.90;;;21.59;68.87;95018.78;5025212;28;20460;-65
2023/09/25 00:10:22;;;;;;;13.93;6.43;;;21.20;99.90;;;21.56;69.11;95026.41;5021976;28;20480;-58
2023/09/25 00:12:49;;;;;;;13.00;6.33;;;21.10;99.90;;;21.52;69.28;95025.16;5025349;28;20850;-59
2023/09/25 00:15:17;;;;;;;15.77;6.73;;;21.10;99.90;;;21.47;68.94;95023.91;5022850;28;21044;-65
2023/09/25 00:17:45;;;;;;;17.33;6.97;;;21.00;99.90;;;21.45;68.95;95023.25;5021434;28;20453;-58
2023/09/25 00:20:13;;;;;;;14.60;5.90;;;21.00;99.90;;;21.43;69.12;95028.00;5015940;28;20469;-60
2023/09/25 00:22:41;;;;;;;13.10;6.00;;;21.00;99.90;;;21.40;69.48;95020.38;5027534;28;20461;-67
2023/09/25 00:25:08;;;;;;;13.33;6.40;;;21.00;99.90;;;21.39;69.50;95034.78;5022945;28;20540;-65
2023/09/25 00:27:36;;;;;;;16.20;6.90;;;20.90;99.90;;;21.35;69.60;95030.03;5024704;28;20462;-66
2023/09/25 00:30:06;;;;;;;7.43;6.10;;;20.90;99.90;;;21.29;69.43;95029.00;5022006;28;20830;-66
2023/09/25 00:32:34;;;;;;;11.20;7.13;;;20.80;99.90;;;21.25;69.33;95025.06;5022241;28;20472;-66
2023/09/25 00:35:05;;;;;;;13.87;6.87;;;20.80;99.90;;;21.22;69.53;95020.13;5019813;28;20591;-58
2023/09/25 00:37:32;;;;;;;23.83;7.70;;;20.80;99.90;;;21.19;69.26;95018.69;5019427;28;20452;-66
2023/09/25 00:40:01;;;;;;;12.70;6.33;;;20.70;99.90;;;21.17;69.29;95022.59;5026224;28;20485;-67
2023/09/25 00:42:28;;;;;;;16.20;6.80;;;20.70;99.90;;;21.14;69.57;95019.28;5020783;28;20966;-66
2023/09/25 00:44:55;;;;;;;12.47;7.73;;;20.70;99.90;;;21.14;69.45;95013.13;5019873;28;20472;-65
2023/09/25 00:47:23;;;;;;;21.20;6.23;;;20.60;99.90;;;21.12;69.50;95016.00;5024204;28;20453;-66
2023/09/25 00:49:50;;;;;;;22.80;6.90;;;20.60;99.90;;;21.14;69.52;95018.47;5025500;28;20476;-66
2023/09/25 00:52:19;;;;;;;15.30;6.30;;;20.70;99.90;;;21.13;69.76;95031.03;5022878;28;20464;-60
2023/09/25 00:54:46;;;;;;;9.33;5.60;;;20.60;99.90;;;21.13;69.24;95019.47;5016941;28;20493;-66
2023/09/25 00:57:13;;;;;;;14.73;6.40;;;20.70;99.90;;;21.12;69.86;95031.22;5019911;28;20792;-66
2023/09/25 00:59:41;;;;;;;19.50;6.27;;;20.60;99.90;;;21.08;69.35;95020.09;5022563;28;20977;-58
2023/09/25 01:02:09;;;;;;;12.10;6.20;;;20.60;99.90;;;21.05;69.25;95020.53;5023762;28;20548;-57
2023/09/25 01:04:36;;;;;;;13.93;6.17;;;20.60;99.90;;;21.03;68.97;95024.41;5018781;28;20660;-58
2023/09/25 01:07:03;;;;;;;15.93;6.60;;;20.60;99.90;;;20.99;69.09;95025.81;5023657;28;20515;-58
2023/09/25 01:09:32;;;;;;;13.83;6.80;;;20.50;99.90;;;20.99;69.04;95015.13;5017435;28;20473;-60
2023/09/25 01:11:59;;;;;;;16.53;6.13;;;20.50;99.90;;;20.96;68.95;95016.38;5021821;28;20454;-65
2023/09/25 01:14:27;;;;;;;11.07;6.23;;;20.60;99.90;;;21.00;68.90;95017.59;5018695;28;20488;-66
2023/09/25 01:16:57;;;;;;;9.07;5.73;;;20.60;99.90;;;21.03;68.91;95027.91;5027575;28;20525;-59
2023/09/25 01:19:24;;;;;;;13.57;5.97;;;20.60;99.90;;;21.06;68.78;95026.69;5018943;28;20539;-66
2023/09/25 01:21:53;;;;;;;15.67;6.60;;;20.60;99.90;;;21.08;68.63;95019.28;5019923;28;20445;-58
2023/09/25 01:24:20;;;;;;;16.10;6.80;;;20.60;99.90;;;21.11;68.61;95026.91;5020085;28;21016;-66
2023/09/25 01:26:47;;;;;;;14.80;5.67;;;20.60;99.90;;;21.12;68.53;95021.34;5022513;28;20458;-65
2023/09/25 01:29:17;;;;;;;17.10;5.57;;;20.70;99.90;;;21.15;68.43;95012.09;5019962;28;20484;-65
2023/09/25 01:31:45;;;;;;;8.27;4.37;;;20.60;99.90;;;21.14;68.03;95011.25;5021694;28;20449;-58
2023/09/25 01:34:12;;;;;;;11.40;4.80;;;20.70;99.90;;;21.15;67.74;95012.09;5021477;28;20483;-60
2023/09/25 01:36:39;;;;;;;9.20;4.37;;;20.70;99.90;;;21.14;67.36;95023.81;5017172;28;20934;-65
2023/09/25 01:39:08;;;;;;;8.20;4.63;;;20.70;99.90;;;21.14;67.21;95016.59;5025125;28;20492;-65
2023/09/25 01:41:37;;;;;;;18.10;4.27;;;20.70;99.90;;;21.13;66.98;95019.47;5020977;28;20442;-58
2023/09/25 01:44:05;;;;;;;6.13;4.33;;;20.70;99.90;;;21.13;66.48;95024.84;5017113;28;20504;-58
2023/09/25 01:46:33;;;;;;;7.37;4.37;;;20.70;99.90;;;21.12;66.79;95036.56;5019131;28;20951;-58
2023/09/25 01:49:01;;;;;;;10.63;4.53;;;20.70;99.90;;;21.12;66.47;95028.56;5019517;28;20477;-59
2023/09/25 01:51:28;;;;;;;8.77;4.87;;;20.70;99.90;;;21.10;66.45;95034.09;5020904;28;20461;-67
2023/09/25 01:53:55;;;;;;;14.10;4.37;;;20.70;99.90;;;21.12;66.42;95033.91;5017110;28;20913;-67
2023/09/25 01:56:24;;;;;;;23.43;4.90;;;20.70;99.90;;;21.14;66.29;95027.31;5024033;28;20511;-66
2023/09/25 01:58:51;;;;;;;12.80;4.47;;;20.70;99.90;;;21.13;66.00;95031.03;5023621;28;20480;-59
2023/09/25 02:01:18;;;;;;;9.17;3.60;;;20.70;99.90;;;21.12;65.97;95029.38;5024203;28;20449;-66
2023/09/25 02:03:46;;;;;;;24.03;4.83;;;20.70;99.90;;;21.11;65.42;95032.25;5024691;28;21116;-59
2023/09/25 02:06:14;;;;;;;16.23;4.47;;;20.70;99.90;;;21.11;65.27;95041.09;5021948;28;20453;-66
2023/09/25 02:08:41;;;;;;;8.63;4.43;;;20.70;99.90;;;21.10;65.40;95039.44;5024966;28;20978;-58
2023/09/25 02:11:08;;;;;;;11.27;4.30;;;20.70;99.90;;;21.09;64.80;95048.50;5023549;28;20480;-65
2023/09/25 02:13:37;;;;;;;6.10;3.47;;;20.70;99.90;;;21.09;64.80;95042.31;5025042;28;20460;-58
2023/09/25 02:16:04;;;;;;;10.77;4.57;;;20.70;99.90;;;21.08;64.96;95057.53;5028955;28;20492;-58
2023/09/25 02:18:32;;;;;;;16.00;4.30;;;20.70;99.90;;;21.07;64.96;95050.56;5023521;28;20460;-65
2023/09/25 02:20:59;;;;;;;12.60;4.27;;;20.70;99.90;;;21.08;64.91;95051.38;5020428;28;21008;-65
2023/09/25 02:23:27;;;;;;;11.47;4.00;;;20.60;99.90;;;21.09;64.79;95053.03;5024313;28;20957;-58
2023/09/25 02:25:54;;;;;;;10.53;3.97;;;20.60;99.90;;;21.10;64.38;95055.50;5027749;28;20481;-58
2023/09/25 02:28:21;;;;;;;16.20;4.07;;;20.70;99.90;;;21.11;64.50;95053.63;5021564;28;20453;-71
2023/09/25 02:30:51;;;;;;;11.93;4.80;;;20.70;99.90;;;21.13;64.41;95068.47;5026007;28;20504;-58
2023/09/25 02:33:19;;;;;;;14.40;4.70;;;20.70;99.90;;;21.16;64.33;95063.75;5029899;28;20456;-66
2023/09/25 02:35:46;;;;;;;8.33;4.37;;;20.70;99.90;;;21.16;64.24;95063.75;5022591;28;20485;-59
2023/09/25 02:38:13;;;;;;;8.40;4.50;;;20.70;99.90;;;21.21;64.13;95063.94;5022617;28;20449;-57
2023/09/25 02:40:41;;;;;;;15.33;4.30;;;20.70;99.90;;;21.17;64.01;95066.22;5020234;28;20473;-65
2023/09/25 02:43:08;;;;;;;7.37;4.10;;;20.80;99.90;;;21.19;63.86;95068.69;5022938;28;21004;-66
2023/09/25 02:45:35;;;;;;;5.03;3.80;;;20.70;99.90;;;21.16;63.33;95069.09;5028826;28;20538;-66
2023/09/25 02:48:05;;;;;;;12.13;3.90;;;20.70;99.90;;;21.10;63.04;95068.88;5024547;28;20454;-66
2023/09/25 02:50:32;;;;;;;11.30;4.70;;;20.70;99.90;;;21.10;63.18;95068.03;5025588;28;20996;-58
2023/09/25 02:52:59;;;;;;;20.47;4.27;;;20.70;99.90;;;21.09;63.13;95075.25;5022143;28;20547;-66
2023/09/25 02:55:27;;;;;;;12.70;3.97;;;20.70;99.90;;;21.07;63.07;95082.66;5026291;28;20550;-59
2023/09/25 02:57:54;;;;;;;10.57;5.17;;;20.60;99.90;;;21.07;63.28;95079.97;5020586;28;20519;-66
2023/09/25 03:00:21;;;;;;;9.87;3.70;;;20.60;99.90;;;21.04;63.01;95091.06;5026458;28;20735;-59
2023/09/25 03:02:49;;;;;;;20.03;4.17;;;20.60;99.90;;;21.02;62.85;95098.47;5021438;28;20559;-65
2023/09/25 03:05:17;;;;;;;6.83;3.70;;;20.60;99.90;;;20.96;62.73;95088.56;5024907;28;20527;-59
2023/09/25 03:07:46;;;;;;;11.20;4.53;;;20.60;99.90;;;20.93;62.77;95094.31;5020355;28;20484;-67
2023/09/25 03:10:13;;;;;;;9.33;4.10;;;20.50;99.90;;;20.92;62.93;95100.69;5020783;28;20488;-60
2023/09/25 03:12:40;;;;;;;6.27;3.80;;;20.50;99.90;;;20.93;62.76;95103.16;5024129;28;20993;-67
2023/09/25 03:15:08;;;;;;;8.73;4.73;;;20.50;99.90;;;20.93;63.08;95105.03;5020136;28;20557;-65
2023/09/25 03:17:36;;;;;;;9.80;3.80;;;20.50;99.90;;;20.92;63.65;95104.16;5020490;28;20993;-66
2023/09/25 03:20:08;;;;;;;8.70;3.63;;;20.50;99.90;;;20.91;63.75;95109.72;5028204;28;20480;-65
2023/09/25 03:22:37;;;;;;;10.03;4.70;;;20.50;99.90;;;20.86;63.96;95106.81;5023340;28;20453;-65
2023/09/25 03:25:06;;;;;;;14.20;4.13;;;20.50;99.90;;;20.82;63.94;95105.56;5022695;28;20918;-61
2023/09/25 03:27:33;;;;;;;12.00;3.90;;;20.40;99.90;;;20.77;64.11;95112.34;5023472;28;20471;-65
2023/09/25 03:30:01;;;;;;;12.27;4.60;;;20.30;99.90;;;20.73;63.90;95116.41;5026607;28;20475;-58
2023/09/25 03:32:28;;;;;;;10.33;4.90;;;20.30;99.90;;;20.71;64.50;95112.28;5023096;28;20453;-58
2023/09/25 03:34:56;;;;;;;4.00;3.20;;;20.30;99.90;;;20.69;64.27;95109.81;5027863;28;20469;-66
2023/09/25 03:37:23;;;;;;;16.17;4.67;;;20.30;99.90;;;20.71;64.16;95109.59;5024976;28;20453;-66
2023/09/25 03:39:52;;;;;;;8.67;4.40;;;20.20;99.90;;;20.70;64.00;95107.97;5020990;28;20512;-59
2023/09/25 03:42:19;;;;;;;10.90;5.30;;;20.30;99.90;;;20.69;64.12;95112.47;5023033;28;20872;-58
2023/09/25 03:44:50;;;;;;;10.30;4.53;;;20.20;99.90;;;20.68;64.25;95113.53;5019759;28;20469;-60
2023/09/25 03:47:19;;;;;;;18.10;7.90;;;20.20;99.90;;;20.66;64.20;95112.88;5021278;28;20454;-59
2023/09/25 03:49:47;;;;;;;10.83;4.80;;;20.20;99.90;;;20.62;64.53;95113.44;5023508;28;20466;-66
2023/09/25 03:52:14;;;;;;;15.60;4.77;;;20.20;99.90;;;20.59;64.31;95117.34;5019487;28;20449;-65
2023/09/25 03:54:42;;;;;;;8.57;6.10;;;20.20;99.90;;;20.55;64.56;95119.56;5020225;28;20550;-67
2023/09/25 03:57:10;;;;;;;13.03;5.10;;;20.10;99.90;;;20.53;64.46;95118.13;5018269;28;20580;-67
2023/09/25 03:59:38;;;;;;;16.77;4.97;;;20.10;99.90;;;20.49;64.71;95122.19;5017271;28;20481;-67
2023/09/25 04:02:05;;;;;;;9.93;5.47;;;20.10;99.90;;;20.44;64.61;95120.09;5021361;28;20452;-58
2023/09/25 04:04:32;;;;;;;9.67;4.70;;;20.10;99.90;;;20.39;64.76;95117.22;5027156;28;20487;-65
2023/09/25 04:07:00;;;;;;;11.07;5.53;;;20.00;99.90;;;20.36;65.05;95113.06;5020820;28;20548;-66
2023/09/25 04:09:27;;;;;;;12.50;5.93;;;19.90;99.90;;;20.33;65.14;95118.81;5021968;28;20469;-59
2023/09/25 04:11:55;;;;;;;11.57;6.10;;;19.90;99.90;;;20.31;65.50;95118.19;5022010;28;20480;-67
2023/09/25 04:14:23;;;;;;;6.67;5.10;;;19.90;99.90;;;20.31;65.86;95125.34;5024786;28;20472;-67
2023/09/25 04:16:54;;;;;;;7.80;5.73;;;19.90;99.90;;;20.28;65.77;95120.38;5025849;28;20531;-61
2023/09/25 04:19:21;;;;;;;9.40;6.20;;;19.90;99.90;;;20.29;66.08;95124.72;5021654;28;20531;-59
2023/09/25 04:21:49;;;;;;;13.37;6.93;;;19.80;99.90;;;20.29;66.23;95138.91;5019572;28;20461;-59
2023/09/25 04:24:16;;;;;;;12.67;5.80;;;19.90;99.90;;;20.28;66.04;95142.59;5022594;28;20484;-59
2023/09/25 04:26:44;;;;;;;8.60;6.53;;;19.80;99.90;;;20.29;66.43;95138.06;5026421;28;20784;-66
2023/09/25 04:29:17;;;;;;;6.77;5.70;;;19.90;99.90;;;20.28;66.29;95142.59;5026416;28;20530;-66
2023/09/25 04:31:47;;;;;;;18.93;7.40;;;19.90;99.90;;;20.29;66.69;95149.56;5024229;28;20452;-68
2023/09/25 04:34:15;;;;;;;13.03;7.07;;;19.80;99.90;;;20.33;66.96;95147.38;5015542;28;20540;-66
2023/09/25 04:36:45;;;;;;;8.73;6.27;;;19.90;99.90;;;20.38;66.90;95151.09;5019370;28;20500;-58
2023/09/25 04:39:16;;;;;;;12.80;7.83;;;19.90;99.90;;;20.44;nan;95140.66;5019888;28;21047;-66
2023/09/25 04:41:44;;;;;;;12.23;7.40;;;20.00;99.90;;;20.46;66.62;95143.97;5022579;28;20449;-60
2023/09/25 04:44:11;;;;;;;14.60;6.47;;;20.00;99.90;;;20.48;66.69;95156.13;5017895;28;20480;-59
2023/09/25 04:46:39;;;;;;;15.83;8.60;;;20.00;99.90;;;20.47;66.63;95148.28;5016973;28;20884;-59
2023/09/25 04:49:08;;;;;;;17.43;7.47;;;20.00;99.90;;;20.48;66.85;95148.09;5028436;28;20835;-65
2023/09/25 04:51:35;;;;;;;16.93;7.90;;;20.00;99.90;;;20.50;66.84;95155.91;5026657;28;20455;-60
2023/09/25 04:54:03;;;;;;;14.50;7.77;;;20.10;99.90;;;20.50;66.55;95151.41;5024203;28;20492;-59
2023/09/25 04:56:30;;;;;;;11.93;7.90;;;20.10;99.90;;;20.47;66.51;95157.13;5022263;28;20924;-59
2023/09/25 04:58:58;;;;;;;11.33;7.50;;;20.10;99.90;;;20.44;66.23;95162.03;5023379;28;20485;-58
2023/09/25 05:01:25;;;;;;;11.30;8.33;;;20.10;99.90;;;20.40;66.55;95157.09;5022202;28;20489;-69
2023/09/25 05:03:53;;;;;;;11.63;9.10;;;20.00;99.90;;;20.38;67.14;95172.47;5022136;28;21377;-69
2023/09/25 05:06:21;;;;;;;15.03;9.37;;;20.00;99.90;;;20.37;66.74;95170.84;5022976;28;20492;-68
2023/09/25 05:08:48;;;;;;;17.17;7.70;;;19.90;99.90;;;20.35;66.98;95169.38;5024474;28;20483;-68
2023/09/25 05:11:16;;;;;;;9.03;8.00;;;19.90;99.90;;;20.31;66.54;95171.59;5021226;28;20453;-68
2023/09/25 05:13:43;;;;;;;15.00;8.93;;;19.90;99.90;;;20.27;66.84;95167.66;5019266;28;20896;-59
2023/09/25 05:16:10;;;;;;;9.10;8.23;;;19.90;99.90;;;20.25;67.21;95169.69;5018184;28;20563;-59
2023/09/25 05:18:38;;;;;;;11.00;8.67;;;19.80;99.90;;;20.24;66.66;95174.19;5021935;28;20507;-68
2023/09/25 05:21:05;;;;;;;9.70;8.70;;;19.80;99.90;;;20.22;66.85;95175.44;5020678;28;20461;-69
2023/09/25 05:23:34;;;;;;;13.10;8.00;;;19.80;99.90;;;20.23;67.04;95179.72;5018415;28;20461;-68
2023/09/25 05:26:02;;;;;;;8.83;7.93;;;19.80;99.90;;;20.23;66.81;95185.91;5017741;28;20548;-68
2023/09/25 05:28:29;;;;;;;15.83;6.17;;;19.80;99.90;;;20.24;66.54;95179.53;5021606;28;20453;-57
2023/09/25 05:30:56;;;;;;;7.53;4.97;;;19.80;99.90;;;20.22;66.41;95181.59;5020968;28;20453;-59
2023/09/25 05:33:23;;;;;;;7.80;5.63;;;19.80;99.90;;;20.20;66.35;95188.13;5018261;28;20900;-59
2023/09/25 05:35:51;;;;;;;13.60;5.73;;;19.80;99.90;;;20.19;66.60;95187.31;5020834;28;21095;-58
2023/09/25 05:38:18;;;;;;;11.53;6.73;;;19.80;99.90;;;20.17;66.34;95185.84;5018652;28;20519;-59
2023/09/25 05:40:47;;;;;;;11.10;5.80;;;19.80;99.90;;;20.14;66.32;95188.91;5021556;28;20850;-68
2023/09/25 05:43:14;;;;;;;7.40;6.70;;;19.80;99.90;;;20.17;66.42;95191.19;5017720;28;20494;-68
2023/09/25 05:45:42;;;;;;;10.83;6.30;;;19.80;99.90;;;20.17;66.27;95197.38;5018545;28;20475;-59
2023/09/25 05:48:10;;;;;;;9.40;6.27;;;19.80;99.90;;;20.22;66.01;95202.97;5017987;28;20472;-58
2023/09/25 05:50:37;;;;;;;8.83;6.30;;;19.80;99.90;;;20.23;66.28;95204.63;5020581;28;20481;-59
2023/09/25 05:53:05;;;;;;;12.67;7.73;;;19.80;99.90;;;20.26;66.37;95198.03;5019488;28;20453;-68
2023/09/25 05:55:32;;;;;;;9.30;7.87;;;19.90;99.90;;;20.29;65.83;95203.00;5019407;28;20477;-69
2023/09/25 05:58:01;;;;;;;11.53;6.80;;;19.90;99.90;;;20.33;66.25;95204.28;5020156;28;20966;-59
2023/09/25 06:00:29;;;;;;;9.17;6.80;;;19.90;99.90;;;20.35;66.38;95199.56;5019196;28;20473;-67
2023/09/25 06:02:56;;;;;;;10.57;7.70;;;20.00;99.90;;;20.47;66.04;95209.75;5019619;28;20461;-59
2023/09/25 06:05:23;;;;;;;12.53;8.47;;;20.00;99.90;;;20.54;66.19;95205.25;5022328;28;20481;-60
2023/09/25 06:07:51;;;;;;;14.40;9.20;;;20.10;99.90;;;20.60;66.05;95204.50;5019031;28;20453;-59
2023/09/25 06:10:21;;;;;;;11.00;8.47;;;20.20;99.90;;;20.73;65.91;95204.63;5019955;28;20477;-68
2023/09/25 06:12:50;;;;;;;14.53;9.07;;;20.30;99.90;;;20.92;65.52;95207.63;5020874;28;20495;-66
2023/09/25 06:15:19;;;;;;;16.93;8.30;;;20.40;99.90;;;21.07;65.28;95211.03;5019929;28;20481;-69
2023/09/25 06:17:46;;;;;;;16.77;9.50;;;20.60;99.90;;;21.28;64.89;95211.97;5020171;28;20528;-59
2023/09/25 06:20:16;;;;;;;11.73;9.03;;;20.80;99.90;;;21.48;64.81;95206.69;5020241;28;20484;-59
2023/09/25 06:22:44;;;;;;;10.90;9.80;;;21.00;99.90;;;21.70;63.85;95204.75;5016073;28;20457;-68
2023/09/25 06:25:14;;;;;;;18.57;10.30;;;21.20;99.90;;;21.90;63.56;95209.34;5020066;28;20844;-58
2023/09/25 06:27:44;;;;;;;17.67;10.07;;;21.40;99.90;;;22.04;63.08;95219.06;5019644;28;20922;-66
2023/09/25 06:30:13;;;;;;;18.03;10.93;;;21.50;99.90;;;22.15;62.85;95210.44;5019170;28;20827;-60
2023/09/25 06:32:41;;;;;;;14.13;10.93;;;21.70;99.90;;;22.29;62.97;95227.38;5014299;28;20457;-63
2023/09/25 06:35:09;;;;;;;13.80;10.60;;;21.80;99.90;;;22.38;62.65;95226.19;5017196;28;20488;-59
2023/09/25 06:37:37;;;;;;;15.37;10.30;;;21.90;99.90;;;22.44;62.38;95227.19;5022626;28;20528;-67
2023/09/25 06:40:09;;;;;;;19.63;10.90;;;22.00;99.90;;;22.45;61.73;95233.38;5021941;28;20500;-59
2023/09/25 06:42:38;;;;;;;14.93;10.90;;;22.00;99.90;;;22.51;61.79;95238.75;5019702;28;20441;-59
2023/09/25 06:45:06;;;;;;;19.30;11.40;;;22.10;99.90;;;22.65;61.70;95236.06;5021461;28;20554;-60
2023/09/25 06:47:34;;;;;;;20.60;12.53;;;22.20;99.90;;;22.70;61.44;95239.78;5023220;28;20925;-58
2023/09/25 06:50:03;;;;;;;29.93;11.50;;;22.20;99.90;;;22.77;60.75;95253.19;5021752;28;20487;-66
2023/09/25 06:52:30;;;;;;;14.77;11.33;;;22.30;99.90;;;22.89;60.82;95243.47;5019666;28;20453;-58
2023/09/25 06:54:58;;;;;;;21.17;10.57;;;22.40;99.90;;;23.04;60.77;95232.53;5022821;28;20542;-59
2023/09/25 06:57:25;;;;;;;16.80;11.30;;;22.50;99.90;;;23.09;60.31;95248.84;5022702;28;20488;-68
2023/09/25 06:59:52;;;;;;;18.97;11.07;;;22.60;99.90;;;23.12;59.92;95247.63;5024739;28;20546;-61
2023/09/25 07:02:20;;;;;;;15.30;10.87;;;22.70;99.90;;;23.19;59.76;95243.09;5020030;28;20457;-59
2023/09/25 07:04:47;;;;;;;19.73;12.20;;;22.80;99.90;;;23.32;59.92;95261.00;5022060;28;20476;-68
2023/09/25 07:07:16;;;;;;;14.87;10.40;;;22.90;99.90;;;23.42;59.50;95248.00;5022394;28;20488;-68
2023/09/25 07:09:43;;;;;;;15.93;10.13;;;22.90;99.60;;;23.50;59.60;95252.31;5025010;28;20484;-69
2023/09/25 07:12:14;;;;;;;17.10;10.97;;;23.00;99.60;;;23.60;59.40;95252.66;5021826;28;20962;-69
2023/09/25 07:14:41;;;;;;;21.33;9.87;;;23.10;99.50;;;23.67;58.98;95255.34;5024431;28;20469;-67
2023/09/25 07:17:09;;;;;;;12.70;10.60;;;23.20;99.00;;;23.59;58.65;95251.03;5022331;28;20864;-68
2023/09/25 07:19:36;;;;;;;14.33;10.40;;;23.20;99.00;;;23.58;58.47;95246.69;5022728;28;20488;-68
2023/09/25 07:22:03;;;;;;;12.60;10.73;;;23.20;98.90;;;23.87;58.07;95255.28;5021242;28;20469;-69
2023/09/25 07:24:32;;;;;;;15.90;10.93;;;23.40;98.60;;;24.33;58.26;95246.13;5023564;28;20571;-66
2023/09/25 07:26:59;;;;;;;17.30;10.67;;;23.80;98.70;;;24.90;56.09;95256.13;5021170;28;20457;-68
2023/09/25 07:29:29;;;;;;;14.77;9.90;;;24.30;97.90;;;25.29;55.73;95254.13;5024501;28;20468;-69
2023/09/25 07:31:57;;;;;;;15.83;10.20;;;24.70;97.10;;;25.67;54.98;95253.09;5025678;28;20559;-58
2023/09/25 07:34:24;;;;;;;16.03;11.03;;;25.10;96.30;;;26.08;52.88;95250.75;5020882;28;20477;-60
2023/09/25 07:36:51;;;;;;;17.10;10.73;;;25.60;94.30;;;26.32;52.76;95249.00;5019640;28;21032;-69
2023/09/25 07:39:22;;;;;;;16.63;11.17;;;25.90;93.80;;;26.68;51.48;95258.03;5019534;28;20480;-67
2023/09/25 07:41:51;;;;;;;21.30;10.93;;;26.30;92.80;;;26.96;51.73;95259.25;5022434;28;20436;-68
2023/09/25 07:44:18;;;;;;;13.37;10.40;;;26.50;92.30;;;27.19;50.47;95261.97;5023194;28;20811;-59
2023/09/25 07:46:47;;;;;;;13.03;9.70;;;26.80;91.10;;;27.37;49.43;95268.31;5022501;28;20559;-68
2023/09/25 07:49:14;;;;;;;13.67;10.50;;;27.00;90.30;;;27.58;49.92;95253.41;5022911;28;20492;-58
2023/09/25 07:51:43;;;;;;;14.47;10.13;;;27.20;90.10;;;27.79;49.67;95253.81;5022340;28;20448;-69
2023/09/25 07:54:10;;;;;;;14.30;9.83;;;27.30;89.00;;;27.80;49.14;95260.88;5021172;28;20476;-59
2023/09/25 07:56:38;;;;;;;12.27;10.33;;;27.40;87.70;;;27.69;48.38;95260.66;5021902;28;20510;-60
2023/09/25 07:59:08;;;;;;;11.00;9.70;;;27.30;86.80;;;27.62;48.59;95259.13;5029345;28;20506;-68
2023/09/25 08:01:38;;;;;;;13.07;10.50;;;27.30;85.40;;;27.67;48.03;95264.63;5026478;28;20940;-59
2023/09/25 08:04:06;;;;;;;15.13;10.67;;;27.30;85.00;;;27.67;47.51;95259.22;5027398;28;20473;-69
2023/09/25 08:06:33;;;;;;;18.70;11.10;;;27.30;83.00;;;27.52;46.22;95260.56;5020999;28;20670;-60
2023/09/25 08:09:01;;;;;;;14.63;9.97;;;27.30;80.40;;;27.43;47.17;95267.38;5021893;28;20566;-59
2023/09/25 08:11:28;;;;;;;16.30;10.70;;;27.20;82.10;;;27.38;47.04;95264.56;5019631;28;20464;-59
2023/09/25 08:13:56;;;;;;;12.07;10.80;;;27.10;82.00;;;27.15;47.43;95260.78;5019955;28;20790;-68
2023/09/25 08:16:27;;;;;;;13.83;10.30;;;26.90;81.50;;;27.03;47.47;95246.44;5020598;28;20448;-60
2023/09/25 08:18:54;;;;;;;15.50;11.20;;;26.80;81.70;;;26.93;47.31;95257.84;5027881;28;20472;-69
2023/09/25 08:21:21;;;;;;;15.10;10.27;;;26.70;81.20;;;26.74;47.75;95245.47;5026021;28;20491;-59
2023/09/25 08:23:49;;;;;;;12.00;9.50;;;26.50;82.10;;;26.64;48.06;95248.72;5020079;28;20984;-69
2023/09/25 08:26:16;;;;;;;9.83;8.83;;;26.40;82.30;;;26.59;48.24;95240.50;5023996;28;20539;-60
2023/09/25 08:28:44;;;;;;;8.40;7.60;;;26.30;82.90;;;26.51;48.03;95238.97;5018953;28;21034;-60
2023/09/25 08:31:11;;;;;;;8.57;7.13;;;26.10;82.40;;;26.34;48.35;95251.47;5026325;28;20453;-60
2023/09/25 08:33:40;;;;;;;8.43;7.03;;;26.00;82.50;;;26.15;48.58;95246.13;5027591;28;20455;-68
2023/09/25 08:36:10;;;;;;;7.57;6.73;;;25.90;83.00;;;26.06;48.63;95242.09;5026874;28;20534;-59
2023/09/25 08:38:38;;;;;;;14.80;6.80;;;25.70;83.80;;;26.00;48.95;95245.69;5022615;28;20476;-69
2023/09/25 08:41:05;;;;;;;9.20;6.40;;;25.60;83.60;;;25.89;48.92;95245.38;5018657;28;20518;-69
2023/09/25 08:43:32;;;;;;;8.70;6.20;;;25.50;83.40;;;25.81;49.31;95253.78;5022194;28;20463;-59
2023/09/25 08:46:00;;;;;;;11.63;6.00;;;25.40;84.10;;;25.68;48.63;95246.66;5018838;28;20449;-72
2023/09/25 08:48:27;;;;;;;13.40;6.07;;;25.30;83.60;;;25.52;48.83;95248.06;5017615;28;20972;-69
2023/09/25 08:50:56;;;;;;;6.23;5.63;;;25.10;83.00;;;25.40;49.27;95239.09;5029501;28;20475;-60
2023/09/25 08:53:23;;;;;;;8.03;5.70;;;25.10;83.90;;;25.37;49.30;95234.97;5018543;28;20449;-61
2023/09/25 08:55:50;;;;;;;14.83;6.00;;;24.90;84.40;;;25.37;49.76;95244.94;5018448;28;20484;-60
2023/09/25 08:58:20;;;;;;;4.87;4.43;;;24.90;84.50;;;25.35;49.36;95242.47;5028675;28;20491;-67
2023/09/25 09:00:47;;;;;;;10.93;5.20;;;24.90;84.20;;;25.27;48.88;95242.72;5032862;28;20499;-71
2023/09/25 09:03:15;;;;;;;7.83;4.90;;;24.80;83.90;;;25.14;49.30;95251.75;5033029;28;20488;-59
2023/09/25 09:05:43;;;;;;;6.03;4.57;;;24.80;83.80;;;25.17;49.32;95245.91;5026266;28;20465;-60
2023/09/25 09:08:16;;;;;;;6.20;5.10;;;24.80;84.30;;;25.31;49.50;95241.25;5026872;28;20470;-71
2023/09/25 09:10:45;;;;;;;7.53;4.27;;;24.80;84.40;;;25.35;48.99;95231.69;5023397;28;20631;-68
2023/09/25 09:13:13;;;;;;;5.50;5.00;;;24.80;84.30;;;25.40;49.23;95233.72;5034728;28;20765;-59
2023/09/25 09:15:43;;;;;;;9.50;4.33;;;24.90;85.10;;;25.40;49.18;95241.78;5034899;28;20563;-61
2023/09/25 09:18:22;;;;;;;4.67;3.80;;;24.90;83.70;;;25.37;48.78;95239.53;5031757;28;20487;-68
2023/09/25 09:20:51;;;;;;;9.97;4.37;;;24.90;83.70;;;25.35;48.97;95245.16;5019575;28;21043;-60
2023/09/25 09:23:20;;;;;;;8.10;4.40;;;24.90;83.40;;;25.35;48.87;95244.34;5021843;28;20452;-60
2023/09/25 09:25:52;;;;;;;8.40;4.83;;;24.90;84.90;;;25.34;49.01;95232.72;5028257;28;20470;-72
2023/09/25 09:28:22;;;;;;;10.90;4.80;;;24.90;84.10;;;25.37;49.57;95234.16;5027188;28;20591;-59
2023/09/25 09:30:52;;;;;;;5.60;4.33;;;24.90;84.40;;;25.36;49.19;95244.13;5022264;28;20484;-66
2023/09/25 09:33:29;;;;;;;5.37;4.90;;;24.90;84.60;;;25.31;49.62;95243.94;5020660;28;20465;-59
2023/09/25 09:35:57;;;;;;;6.10;4.40;;;24.80;84.50;;;25.24;49.58;95241.28;5023586;28;20452;-62
2023/09/25 09:38:27;;;;;;;6.20;4.83;;;24.80;84.90;;;25.25;49.78;95247.50;5017801;28;20521;-58
2023/09/25 09:40:55;;;;;;;13.20;5.60;;;24.80;84.80;;;25.30;49.55;95250.41;5017683;28;20496;-59
2023/09/25 09:43:23;;;;;;;8.43;4.33;;;24.80;84.90;;;25.38;49.59;95247.41;5019107;28;20455;-66
2023/09/25 09:45:51;;;;;;;7.70;4.17;;;24.90;84.90;;;25.51;49.46;95256.38;5024611;28;20885;-59
2023/09/25 09:48:19;;;;;;;8.30;4.03;;;25.00;84.20;;;25.64;48.91;95250.00;5016859;28;20907;-60
2023/09/25 09:50:50;;;;;;;12.77;3.90;;;25.10;83.70;;;25.82;48.62;95246.50;5020329;28;20504;-59
2023/09/25 09:53:18;;;;;;;7.53;4.33;;;25.20;83.80;;;26.04;48.21;95257.66;5021509;28;20448;-59
2023/09/25 09:55:47;;;;;;;6.50;3.80;;;25.40;82.70;;;26.18;47.46;95247.50;5017572;28;20479;-59
2023/09/25 09:58:14;;;;;;;5.60;3.93;;;25.60;81.20;;;26.37;47.49;95242.88;5017717;28;20547;-59
2023/09/25 10:00:42;;;;;;;11.40;4.13;;;25.80;81.40;;;26.75;46.68;95249.81;5021678;28;20522;-67
2023/09/25 10:03:09;;;;;;;6.33;4.07;;;26.10;80.50;;;27.03;45.82;95254.53;5017736;28;20572;-65
2023/09/25 10:05:45;;;;;;;10.40;4.30;;;26.40;79.10;;;27.23;45.17;95250.69;5020707;28;20468;-59
2023/09/25 10:08:12;;;;;;;5.63;3.53;;;26.60;77.70;;;27.35;45.65;95252.34;5018652;28;20455;-65
2023/09/25 10:10:43;;;;;;;5.87;3.73;;;26.70;78.80;;;27.47;44.61;95246.94;5018055;28;20977;-59
2023/09/25 10:13:14;;;;;;;11.93;4.17;;;26.90;76.80;;;27.54;44.57;95253.06;5020805;28;20494;-65
2023/09/25 10:15:51;;;;;;;6.93;4.57;;;26.90;75.30;;;27.57;44.54;95240.94;5018791;28;21016;-58